createdAt,value
2022-09-28T00:03:16.000Z,9.9
2022-09-28T00:06:48.000Z,9.7
2022-09-28T00:10:21.000Z,10.8
2022-09-28T00:13:54.000Z,10.2
2022-09-28T00:17:26.000Z,10.6
2022-09-28T00:20:59.000Z,6.8
2022-09-28T00:24:31.000Z,9
2022-09-28T00:28:04.000Z,8
2022-09-28T00:31:37.000Z,7.2
2022-09-28T00:35:10.000Z,7.5
2022-09-28T00:38:01.000Z,5.2
2022-09-28T00:41:34.000Z,7.8
2022-09-28T00:45:06.000Z,7.1
2022-09-28T00:48:39.000Z,8.2
2022-09-28T00:52:11.000Z,11.7
2022-09-28T00:55:44.000Z,8.6
2022-09-28T00:59:17.000Z,8.1
2022-09-28T01:02:49.000Z,5.8
2022-09-28T01:06:28.000Z,7.6
2022-09-28T01:10:01.000Z,7
2022-09-28T01:13:34.000Z,6.6
2022-09-28T01:16:25.000Z,9.7
2022-09-28T01:19:57.000Z,6.7
2022-09-28T01:23:30.000Z,6.1
2022-09-28T01:27:03.000Z,7.3
2022-09-28T01:30:35.000Z,6.2
2022-09-28T01:34:08.000Z,4.3
2022-09-28T01:37:40.000Z,4.6
2022-09-28T01:41:13.000Z,4.5
2022-09-28T01:44:46.000Z,4.2
2022-09-28T01:48:18.000Z,5.7
2022-09-28T01:51:51.000Z,5.9
2022-09-28T01:54:42.000Z,4.4
2022-09-28T01:58:15.000Z,4.2
2022-09-28T02:01:47.000Z,5.4
2022-09-28T02:05:20.000Z,4.5
2022-09-28T02:08:53.000Z,4.5
2022-09-28T02:12:25.000Z,5.7
2022-09-28T02:15:58.000Z,3.1
2022-09-28T02:19:31.000Z,5.5
2022-09-28T02:23:03.000Z,4.2
2022-09-28T02:26:36.000Z,4
2022-09-28T02:30:08.000Z,3.9
2022-09-28T02:32:59.000Z,3.7
2022-09-28T02:36:32.000Z,3.5
2022-09-28T02:40:04.000Z,3.3
2022-09-28T02:43:37.000Z,6.1
2022-09-28T02:47:10.000Z,2.6
2022-09-28T02:50:50.000Z,2.1
2022-09-28T02:54:23.000Z,4.1
2022-09-28T02:57:56.000Z,4.1
2022-09-28T03:01:28.000Z,2
2022-09-28T03:05:01.000Z,2.3
2022-09-28T03:08:33.000Z,3.3
2022-09-28T03:11:24.000Z,2.3
2022-09-28T03:14:57.000Z,4.2
2022-09-28T03:18:30.000Z,4.6
2022-09-28T03:22:02.000Z,4
2022-09-28T03:25:35.000Z,3.3
2022-09-28T03:29:08.000Z,4.4
2022-09-28T03:32:40.000Z,3.3
2022-09-28T03:36:13.000Z,3
2022-09-28T03:39:46.000Z,3.2
2022-09-28T03:43:18.000Z,3.5
2022-09-28T03:46:51.000Z,2.5
2022-09-28T03:49:42.000Z,5.2
2022-09-28T03:53:15.000Z,3
2022-09-28T03:56:48.000Z,3.6
2022-09-28T04:00:20.000Z,2.7
2022-09-28T04:03:53.000Z,3
2022-09-28T04:07:26.000Z,2.4
2022-09-28T04:10:58.000Z,1.9
2022-09-28T04:14:31.000Z,2
2022-09-28T04:18:04.000Z,1.9
2022-09-28T04:21:36.000Z,1.6
2022-09-28T04:25:09.000Z,1.5
2022-09-28T04:28:00.000Z,2
2022-09-28T04:31:33.000Z,2.2
2022-09-28T04:35:05.000Z,5.4
2022-09-28T04:38:38.000Z,5.5
2022-09-28T04:44:25.000Z,3.2
2022-09-28T04:47:57.000Z,1.8
2022-09-28T04:51:30.000Z,2.5
2022-09-28T04:55:03.000Z,2.4
2022-09-28T04:58:35.000Z,3.4
2022-09-28T05:02:08.000Z,4.1
2022-09-28T05:05:41.000Z,3.5
2022-09-28T05:08:26.000Z,2.5
2022-09-28T05:11:58.000Z,2.8
2022-09-28T05:15:31.000Z,3.3
2022-09-28T05:19:04.000Z,3.6
2022-09-28T05:22:36.000Z,3.5
2022-09-28T05:26:09.000Z,2.9
2022-09-28T05:29:42.000Z,4.6
2022-09-28T05:33:14.000Z,2.8
2022-09-28T05:36:47.000Z,3.7
2022-09-28T05:40:20.000Z,3.9
2022-09-28T05:43:52.000Z,3.9
2022-09-28T05:46:44.000Z,3.2
2022-09-28T05:50:16.000Z,5.3
2022-09-28T05:53:49.000Z,4
2022-09-28T05:57:25.000Z,4
2022-09-28T06:00:58.000Z,3.4
2022-09-28T06:04:31.000Z,5.6
2022-09-28T06:08:04.000Z,4.6
2022-09-28T06:11:36.000Z,20.6
2022-09-28T06:15:09.000Z,8.9
2022-09-28T06:18:42.000Z,6.8
2022-09-28T06:22:15.000Z,15
2022-09-28T06:25:06.000Z,8.4
2022-09-28T06:28:39.000Z,8.5
2022-09-28T06:32:11.000Z,6.9
2022-09-28T06:35:44.000Z,7.9
2022-09-28T06:39:17.000Z,8.5
2022-09-28T06:42:50.000Z,6
2022-09-28T06:46:22.000Z,8.7
2022-09-28T06:49:55.000Z,8.3
2022-09-28T06:53:28.000Z,9.2
2022-09-28T06:57:00.000Z,7.2
2022-09-28T07:00:33.000Z,6.3
2022-09-28T07:03:24.000Z,7.9
2022-09-28T07:06:57.000Z,8.9
2022-09-28T07:10:29.000Z,8.6
2022-09-28T07:14:02.000Z,9.8
2022-09-28T07:17:40.000Z,10
2022-09-28T07:21:25.000Z,9
2022-09-28T07:25:12.000Z,8.9
2022-09-28T07:28:44.000Z,7.1
2022-09-28T07:32:17.000Z,8.4
2022-09-28T07:35:50.000Z,7.7
2022-09-28T07:39:22.000Z,7.5
2022-09-28T07:42:14.000Z,7
2022-09-28T07:45:46.000Z,7.5
2022-09-28T07:49:19.000Z,6.9
2022-09-28T07:52:52.000Z,7.4
2022-09-28T07:56:24.000Z,7.6
2022-09-28T07:59:57.000Z,6.1
2022-09-28T08:03:30.000Z,6.5
2022-09-28T08:07:02.000Z,7.4
2022-09-28T08:10:35.000Z,6.4
2022-09-28T08:14:12.000Z,6.1
2022-09-28T08:17:45.000Z,7.2
2022-09-28T08:20:36.000Z,7
2022-09-28T08:24:13.000Z,4.9
2022-09-28T08:27:45.000Z,5.1
2022-09-28T08:31:18.000Z,5.8
2022-09-28T08:34:50.000Z,5.8
2022-09-28T08:38:23.000Z,7.1
2022-09-28T08:41:56.000Z,4.6
2022-09-28T08:45:28.000Z,4.5
2022-09-28T08:49:01.000Z,5.4
2022-09-28T08:52:55.000Z,4
2022-09-28T08:56:28.000Z,5.2
2022-09-28T08:59:19.000Z,4.8
2022-09-28T09:02:52.000Z,5.6
2022-09-28T09:06:24.000Z,3.7
2022-09-28T09:09:57.000Z,4
2022-09-28T09:13:30.000Z,3.6
2022-09-28T09:17:03.000Z,3
2022-09-28T09:20:35.000Z,4.2
2022-09-28T09:24:08.000Z,3.5
2022-09-28T09:27:41.000Z,4.2
2022-09-28T09:31:13.000Z,3.8
2022-09-28T09:34:48.000Z,3.8
2022-09-28T09:37:39.000Z,4.9
2022-09-28T09:41:11.000Z,5.7
2022-09-28T09:44:44.000Z,4.1
2022-09-28T09:48:17.000Z,3.2
2022-09-28T09:51:49.000Z,4.2
2022-09-28T09:55:22.000Z,2.3
2022-09-28T09:58:55.000Z,1.8
2022-09-28T10:02:28.000Z,3
2022-09-28T10:06:00.000Z,2.8
2022-09-28T10:09:33.000Z,1.8
2022-09-28T10:13:06.000Z,2
2022-09-28T10:15:57.000Z,1.8
2022-09-28T10:19:29.000Z,2.2
2022-09-28T10:23:02.000Z,3.6
2022-09-28T10:26:35.000Z,1.4
2022-09-28T10:30:07.000Z,2.5
2022-09-28T10:33:40.000Z,1.4
2022-09-28T10:37:12.000Z,1.4
2022-09-28T10:40:45.000Z,1
2022-09-28T10:44:18.000Z,1.3
2022-09-28T10:47:51.000Z,1
2022-09-28T10:51:23.000Z,1.1
2022-09-28T10:54:15.000Z,1
2022-09-28T10:57:47.000Z,1.5
2022-09-28T11:01:20.000Z,1.1
2022-09-28T11:04:53.000Z,1.4
2022-09-28T11:08:25.000Z,1.4
2022-09-28T11:11:58.000Z,3.6
2022-09-28T11:15:30.000Z,1.4
2022-09-28T11:19:03.000Z,1.3
2022-09-28T11:22:36.000Z,1.2
2022-09-28T11:26:12.000Z,1.8
2022-09-28T11:29:44.000Z,3.3
2022-09-28T11:32:36.000Z,1.6
2022-09-28T11:36:08.000Z,1.6
2022-09-28T11:39:41.000Z,1.6
2022-09-28T11:43:13.000Z,1.7
2022-09-28T11:46:46.000Z,1.6
2022-09-28T11:50:19.000Z,1.6
2022-09-28T11:53:51.000Z,1.6
2022-09-28T11:57:24.000Z,1.7
2022-09-28T12:00:56.000Z,1.7
2022-09-28T12:04:29.000Z,2.2
2022-09-28T12:08:02.000Z,2.2
2022-09-28T12:10:53.000Z,2.2
2022-09-28T12:14:26.000Z,3.5
2022-09-28T12:18:31.000Z,2.6
2022-09-28T12:22:03.000Z,3.3
2022-09-28T12:25:36.000Z,3.1
2022-09-28T12:29:08.000Z,3.3
2022-09-28T12:32:41.000Z,3
2022-09-28T12:36:14.000Z,3.6
2022-09-28T12:39:52.000Z,2.9
2022-09-28T12:43:26.000Z,4.7
2022-09-28T12:46:58.000Z,3
2022-09-28T12:49:49.000Z,2.7
2022-09-28T12:54:03.000Z,2.5
2022-09-28T12:57:36.000Z,2.7
2022-09-28T13:01:09.000Z,2.2
2022-09-28T13:04:41.000Z,2.2
2022-09-28T13:08:14.000Z,2.4
2022-09-28T13:11:47.000Z,2.6
2022-09-28T13:15:19.000Z,3.1
2022-09-28T13:18:59.000Z,2.6
2022-09-28T13:22:31.000Z,2.1
2022-09-28T13:26:31.000Z,1.8
2022-09-28T13:29:22.000Z,1.6
2022-09-28T13:32:55.000Z,2.1
2022-09-28T13:36:27.000Z,2.1
2022-09-28T13:40:00.000Z,3
2022-09-28T13:43:33.000Z,1.7
2022-09-28T13:47:05.000Z,1.7
2022-09-28T13:50:38.000Z,1.6
2022-09-28T13:54:10.000Z,2.2
2022-09-28T13:57:43.000Z,1.9
2022-09-28T14:01:16.000Z,2.2
2022-09-28T14:04:49.000Z,1.8
2022-09-28T14:07:40.000Z,1.8
2022-09-28T14:11:12.000Z,1.8
2022-09-28T14:14:45.000Z,1.9
2022-09-28T14:18:18.000Z,2.3
2022-09-28T14:21:50.000Z,1.9
2022-09-28T14:25:23.000Z,1.5
2022-09-28T14:28:56.000Z,1.7
2022-09-28T14:32:33.000Z,2.1
2022-09-28T14:36:05.000Z,1.6
2022-09-28T14:39:38.000Z,2.3
2022-09-28T14:43:11.000Z,1.5
2022-09-28T14:46:02.000Z,2.6
2022-09-28T14:49:35.000Z,2.8
2022-09-28T14:53:07.000Z,2.2
2022-09-28T14:56:40.000Z,2.8
2022-09-28T15:00:12.000Z,2.5
2022-09-28T15:03:45.000Z,2.3
2022-09-28T15:07:18.000Z,2.6
2022-09-28T15:10:51.000Z,2.5
2022-09-28T15:14:23.000Z,2.5
2022-09-28T15:17:56.000Z,2.5
2022-09-28T15:21:29.000Z,2.3
2022-09-28T15:24:19.000Z,2.2
2022-09-28T15:27:52.000Z,1.7
2022-09-28T15:31:25.000Z,1.6
2022-09-28T15:34:57.000Z,1.9
2022-09-28T15:38:30.000Z,2.1
2022-09-28T15:42:02.000Z,2
2022-09-28T15:45:35.000Z,2.7
2022-09-28T15:49:08.000Z,2.2
2022-09-28T15:52:40.000Z,2.1
2022-09-28T15:56:13.000Z,2.6
2022-09-28T15:59:46.000Z,2
2022-09-28T16:02:37.000Z,2.3
2022-09-28T16:06:10.000Z,2.5
2022-09-28T16:09:42.000Z,2.5
2022-09-28T16:13:15.000Z,2.6
2022-09-28T16:16:47.000Z,2.6
2022-09-28T16:20:20.000Z,3.1
2022-09-28T16:23:53.000Z,2.1
2022-09-28T16:27:25.000Z,3
2022-09-28T16:30:58.000Z,2.4
2022-09-28T16:34:31.000Z,2
2022-09-28T16:38:03.000Z,2.2
2022-09-28T16:40:55.000Z,2
2022-09-28T16:44:27.000Z,1.9
2022-09-28T16:48:00.000Z,1.9
2022-09-28T16:51:33.000Z,1.9
2022-09-28T16:55:05.000Z,3.1
2022-09-28T16:59:05.000Z,2.9
2022-09-28T17:02:39.000Z,2.9
2022-09-28T17:06:12.000Z,1.9
2022-09-28T17:09:45.000Z,2.7
2022-09-28T17:13:23.000Z,2.6
2022-09-28T17:26:01.000Z,3.5
2022-09-28T17:29:34.000Z,25.6
2022-09-28T17:33:06.000Z,16.3
2022-09-28T17:36:39.000Z,2.4
2022-09-28T17:40:11.000Z,2
2022-09-28T17:43:44.000Z,3.5
2022-09-28T17:47:17.000Z,2
2022-09-28T17:50:49.000Z,2.3
2022-09-28T17:54:22.000Z,2
2022-09-28T17:57:55.000Z,4.8
2022-09-28T18:01:27.000Z,2.8
2022-09-28T18:04:19.000Z,3.7
2022-09-28T18:08:15.000Z,2.2
2022-09-28T18:11:48.000Z,2.4
2022-09-28T18:15:20.000Z,2.6
2022-09-28T18:18:53.000Z,3.4
2022-09-28T18:22:26.000Z,2.7
2022-09-28T18:25:58.000Z,3.5
2022-09-28T18:29:31.000Z,3.4
2022-09-28T18:33:04.000Z,3.4
2022-09-28T18:36:37.000Z,5.3
2022-09-28T18:40:09.000Z,4.1
2022-09-28T18:43:00.000Z,5.6
2022-09-28T18:46:33.000Z,5.3
2022-09-28T18:50:06.000Z,3
2022-09-28T18:53:38.000Z,2.9
2022-09-28T18:57:11.000Z,2.4
2022-09-28T19:00:44.000Z,4.7
2022-09-28T19:04:17.000Z,2.9
2022-09-28T19:07:49.000Z,2.5
2022-09-28T19:11:22.000Z,4.2
2022-09-28T19:14:54.000Z,3.4
2022-09-28T19:18:27.000Z,2.2
2022-09-28T19:21:18.000Z,6.4
2022-09-28T19:24:51.000Z,6.4
2022-09-28T19:28:23.000Z,6.9
2022-09-28T19:31:56.000Z,5.5
2022-09-28T19:35:28.000Z,3.9
2022-09-28T19:39:01.000Z,5
2022-09-28T19:42:34.000Z,4.6
2022-09-28T19:46:06.000Z,2.7
2022-09-28T19:49:39.000Z,3.8
2022-09-28T19:53:12.000Z,3.1
2022-09-28T19:56:44.000Z,2.8
2022-09-28T19:59:35.000Z,2.8
2022-09-28T20:03:08.000Z,3.1
2022-09-28T20:06:40.000Z,3.8
2022-09-28T20:10:13.000Z,4
2022-09-28T20:13:46.000Z,4.8
2022-09-28T20:17:18.000Z,3.4
2022-09-28T20:20:51.000Z,5.2
2022-09-28T20:24:24.000Z,7.1
2022-09-28T20:27:56.000Z,3.6
2022-09-28T20:31:29.000Z,2.9
2022-09-28T20:35:02.000Z,2.7
2022-09-28T20:37:53.000Z,4.2
2022-09-28T20:41:25.000Z,6.4
2022-09-28T20:44:58.000Z,3
2022-09-28T20:48:31.000Z,4.1
2022-09-28T20:52:03.000Z,3.3
2022-09-28T20:55:36.000Z,5
2022-09-28T20:59:08.000Z,5.2
2022-09-28T21:02:41.000Z,2.9
2022-09-28T21:06:14.000Z,4.7
2022-09-28T21:09:46.000Z,3
2022-09-28T21:13:19.000Z,2.8
2022-09-28T21:16:10.000Z,6
2022-09-28T21:19:43.000Z,14.8
2022-09-28T21:23:16.000Z,2.5
2022-09-28T21:26:50.000Z,4.4
2022-09-28T21:30:22.000Z,3.4
2022-09-28T21:33:55.000Z,4
2022-09-28T21:37:28.000Z,3.8
2022-09-28T21:41:05.000Z,5.7
2022-09-28T21:44:38.000Z,7.4
2022-09-28T21:48:11.000Z,5.4
2022-09-28T21:51:43.000Z,5
2022-09-28T21:54:34.000Z,6
2022-09-28T21:58:07.000Z,3
2022-09-28T22:01:40.000Z,4
2022-09-28T22:05:12.000Z,4.6
2022-09-28T22:08:45.000Z,4
2022-09-28T22:12:18.000Z,3.4
2022-09-28T22:15:50.000Z,3.9
2022-09-28T22:19:23.000Z,2.9
2022-09-28T22:22:56.000Z,4.4
2022-09-28T22:26:28.000Z,6.6
2022-09-28T22:30:01.000Z,3.7
2022-09-28T22:32:52.000Z,4.2
2022-09-28T22:36:25.000Z,2.8
2022-09-28T22:39:57.000Z,2.8
2022-09-28T22:43:30.000Z,2.7
2022-09-28T22:47:02.000Z,4.2
2022-09-28T22:50:35.000Z,4.9
2022-09-28T22:54:08.000Z,3.8
2022-09-28T22:57:40.000Z,2.6
2022-09-28T23:01:13.000Z,4.1
2022-09-28T23:04:46.000Z,3.6
2022-09-28T23:08:19.000Z,3.2
2022-09-28T23:11:10.000Z,3.1
2022-09-28T23:14:43.000Z,8.8
2022-09-28T23:18:15.000Z,4.3
2022-09-28T23:21:48.000Z,5.3
2022-09-28T23:25:20.000Z,5.2
2022-09-28T23:28:53.000Z,5.6
2022-09-28T23:32:26.000Z,5.9
2022-09-28T23:35:58.000Z,3.4
2022-09-28T23:39:31.000Z,3.3
2022-09-28T23:43:04.000Z,3.6
2022-09-28T23:46:36.000Z,3.8
2022-09-28T23:49:28.000Z,3.9
2022-09-28T23:53:00.000Z,5.7
2022-09-28T23:56:33.000Z,3.1
